sensor_id;sensor_type;location;lat;lon;timestamp;temperature;humidity
6462;DHT22;3264;42.862;25.098;2023-11-21T00:00:34;5.60;99.90
6462;DHT22;3264;42.862;25.098;2023-11-21T00:03:05;5.60;99.90
6462;DHT22;3264;42.862;25.098;2023-11-21T00:05:41;5.60;99.90
6462;DHT22;3264;42.862;25.098;2023-11-21T00:08:08;5.60;99.90
6462;DHT22;3264;42.862;25.098;2023-11-21T00:10:39;5.60;99.90
6462;DHT22;3264;42.862;25.098;2023-11-21T00:13:11;5.50;99.90
6462;DHT22;3264;42.862;25.098;2023-11-21T00:15:41;5.50;99.90
6462;DHT22;3264;42.862;25.098;2023-11-21T00:18:29;5.40;99.90
6462;DHT22;3264;42.862;25.098;2023-11-21T00:20:57;5.50;99.90
6462;DHT22;3264;42.862;25.098;2023-11-21T00:23:27;5.50;99.90
6462;DHT22;3264;42.862;25.098;2023-11-21T00:25:56;5.50;99.90
6462;DHT22;3264;42.862;25.098;2023-11-21T00:28:25;5.50;99.90
6462;DHT22;3264;42.862;25.098;2023-11-21T00:30:54;5.50;99.90
6462;DHT22;3264;42.862;25.098;2023-11-21T00:33:23;5.50;99.90
6462;DHT22;3264;42.862;25.098;2023-11-21T00:35:51;5.50;99.90
6462;DHT22;3264;42.862;25.098;2023-11-21T00:38:20;5.50;99.90
6462;DHT22;3264;42.862;25.098;2023-11-21T00:40:47;5.50;99.90
6462;DHT22;3264;42.862;25.098;2023-11-21T00:43:17;5.50;99.90
6462;DHT22;3264;42.862;25.098;2023-11-21T00:45:50;5.40;99.90
6462;DHT22;3264;42.862;25.098;2023-11-21T00:48:21;5.50;99.90
6462;DHT22;3264;42.862;25.098;2023-11-21T00:50:57;5.40;99.90
6462;DHT22;3264;42.862;25.098;2023-11-21T00:53:25;5.50;99.90
6462;DHT22;3264;42.862;25.098;2023-11-21T00:55:55;5.50;99.90
6462;DHT22;3264;42.862;25.098;2023-11-21T00:58:28;5.50;99.90
6462;DHT22;3264;42.862;25.098;2023-11-21T01:00:58;5.50;99.90
6462;DHT22;3264;42.862;25.098;2023-11-21T01:03:32;5.50;99.90
6462;DHT22;3264;42.862;25.098;2023-11-21T01:06:14;5.50;99.90
6462;DHT22;3264;42.862;25.098;2023-11-21T01:08:45;5.50;99.90
6462;DHT22;3264;42.862;25.098;2023-11-21T01:11:13;5.40;99.90
6462;DHT22;3264;42.862;25.098;2023-11-21T01:13:46;5.40;99.90
6462;DHT22;3264;42.862;25.098;2023-11-21T01:16:33;5.40;99.90
6462;DHT22;3264;42.862;25.098;2023-11-21T01:19:03;5.40;99.90
6462;DHT22;3264;42.862;25.098;2023-11-21T01:21:32;5.30;99.90
6462;DHT22;3264;42.862;25.098;2023-11-21T01:24:03;5.00;99.90
6462;DHT22;3264;42.862;25.098;2023-11-21T01:26:33;4.80;99.90
6462;DHT22;3264;42.862;25.098;2023-11-21T01:29:03;4.90;99.90
6462;DHT22;3264;42.862;25.098;2023-11-21T01:31:34;4.90;99.90
6462;DHT22;3264;42.862;25.098;2023-11-21T01:34:05;4.90;99.90
6462;DHT22;3264;42.862;25.098;2023-11-21T01:36:35;4.90;99.90
6462;DHT22;3264;42.862;25.098;2023-11-21T01:39:04;4.90;99.90
6462;DHT22;3264;42.862;25.098;2023-11-21T01:41:35;4.90;99.90
6462;DHT22;3264;42.862;25.098;2023-11-21T01:44:17;4.90;99.90
6462;DHT22;3264;42.862;25.098;2023-11-21T01:46:47;4.90;99.90
6462;DHT22;3264;42.862;25.098;2023-11-21T01:49:16;4.90;99.90
6462;DHT22;3264;42.862;25.098;2023-11-21T01:51:48;5.00;99.90
6462;DHT22;3264;42.862;25.098;2023-11-21T01:54:17;5.00;99.90
6462;DHT22;3264;42.862;25.098;2023-11-21T01:56:46;5.00;99.90
6462;DHT22;3264;42.862;25.098;2023-11-21T01:59:18;5.00;99.90
6462;DHT22;3264;42.862;25.098;2023-11-21T02:01:48;4.90;99.90
6462;DHT22;3264;42.862;25.098;2023-11-21T02:04:20;5.00;99.90
6462;DHT22;3264;42.862;25.098;2023-11-21T02:06:49;4.80;99.90
6462;DHT22;3264;42.862;25.098;2023-11-21T02:09:17;4.80;99.90
6462;DHT22;3264;42.862;25.098;2023-11-21T02:11:51;4.60;99.90
6462;DHT22;3264;42.862;25.098;2023-11-21T02:14:20;4.60;99.90
6462;DHT22;3264;42.862;25.098;2023-11-21T02:16:50;4.60;99.90
6462;DHT22;3264;42.862;25.098;2023-11-21T02:19:21;4.60;99.90
6462;DHT22;3264;42.862;25.098;2023-11-21T02:21:52;4.60;99.90
6462;DHT22;3264;42.862;25.098;2023-11-21T02:24:22;4.60;99.90
6462;DHT22;3264;42.862;25.098;2023-11-21T02:26:51;4.70;99.90
6462;DHT22;3264;42.862;25.098;2023-11-21T02:29:19;4.70;99.90
6462;DHT22;3264;42.862;25.098;2023-11-21T02:31:54;4.80;99.90
6462;DHT22;3264;42.862;25.098;2023-11-21T02:34:23;4.80;99.90
6462;DHT22;3264;42.862;25.098;2023-11-21T02:36:52;4.90;99.90
6462;DHT22;3264;42.862;25.098;2023-11-21T02:39:22;4.90;99.90
6462;DHT22;3264;42.862;25.098;2023-11-21T02:41:51;4.90;99.90
6462;DHT22;3264;42.862;25.098;2023-11-21T02:44:20;4.90;99.90
6462;DHT22;3264;42.862;25.098;2023-11-21T02:46:48;4.90;99.90
6462;DHT22;3264;42.862;25.098;2023-11-21T02:49:16;4.90;99.90
6462;DHT22;3264;42.862;25.098;2023-11-21T02:51:44;4.90;99.90
6462;DHT22;3264;42.862;25.098;2023-11-21T02:54:12;4.80;99.90
6462;DHT22;3264;42.862;25.098;2023-11-21T02:56:41;4.80;99.90
6462;DHT22;3264;42.862;25.098;2023-11-21T02:59:10;4.90;99.90
6462;DHT22;3264;42.862;25.098;2023-11-21T03:01:39;4.80;99.90
6462;DHT22;3264;42.862;25.098;2023-11-21T03:04:27;4.90;99.90
6462;DHT22;3264;42.862;25.098;2023-11-21T03:06:56;4.90;99.90
6462;DHT22;3264;42.862;25.098;2023-11-21T03:09:25;4.90;99.90
6462;DHT22;3264;42.862;25.098;2023-11-21T03:11:55;4.80;99.90
6462;DHT22;3264;42.862;25.098;2023-11-21T03:14:24;4.80;99.90
6462;DHT22;3264;42.862;25.098;2023-11-21T03:16:52;4.80;99.90
6462;DHT22;3264;42.862;25.098;2023-11-21T03:19:21;4.80;99.90
6462;DHT22;3264;42.862;25.098;2023-11-21T03:21:50;4.80;99.90
6462;DHT22;3264;42.862;25.098;2023-11-21T03:24:20;4.70;99.90
6462;DHT22;3264;42.862;25.098;2023-11-21T03:26:49;4.70;99.90
6462;DHT22;3264;42.862;25.098;2023-11-21T03:29:19;4.70;99.90
6462;DHT22;3264;42.862;25.098;2023-11-21T03:31:47;4.60;99.90
6462;DHT22;3264;42.862;25.098;2023-11-21T03:34:22;4.60;99.90
6462;DHT22;3264;42.862;25.098;2023-11-21T03:36:51;4.40;99.90
6462;DHT22;3264;42.862;25.098;2023-11-21T03:39:19;4.30;99.90
6462;DHT22;3264;42.862;25.098;2023-11-21T03:41:49;4.30;99.90
6462;DHT22;3264;42.862;25.098;2023-11-21T03:44:19;4.30;99.90
6462;DHT22;3264;42.862;25.098;2023-11-21T03:46:48;4.30;99.90
6462;DHT22;3264;42.862;25.098;2023-11-21T03:49:15;4.30;99.90
6462;DHT22;3264;42.862;25.098;2023-11-21T03:51:44;4.30;99.90
6462;DHT22;3264;42.862;25.098;2023-11-21T03:54:12;4.30;99.90
6462;DHT22;3264;42.862;25.098;2023-11-21T03:56:41;4.20;99.90
6462;DHT22;3264;42.862;25.098;2023-11-21T03:59:09;4.20;99.90
6462;DHT22;3264;42.862;25.098;2023-11-21T04:01:40;4.20;99.90
6462;DHT22;3264;42.862;25.098;2023-11-21T04:04:07;4.20;99.90
6462;DHT22;3264;42.862;25.098;2023-11-21T04:06:36;4.20;99.90
6462;DHT22;3264;42.862;25.098;2023-11-21T04:09:05;4.20;99.90
6462;DHT22;3264;42.862;25.098;2023-11-21T04:11:33;4.20;99.90
6462;DHT22;3264;42.862;25.098;2023-11-21T04:14:02;4.20;99.90
6462;DHT22;3264;42.862;25.098;2023-11-21T04:16:29;4.20;99.90
6462;DHT22;3264;42.862;25.098;2023-11-21T04:18:59;4.20;99.90
6462;DHT22;3264;42.862;25.098;2023-11-21T04:21:28;4.30;99.90
6462;DHT22;3264;42.862;25.098;2023-11-21T04:23:56;4.20;99.90
6462;DHT22;3264;42.862;25.098;2023-11-21T04:26:25;4.10;99.90
6462;DHT22;3264;42.862;25.098;2023-11-21T04:28:52;4.00;99.90
6462;DHT22;3264;42.862;25.098;2023-11-21T04:31:21;3.90;99.90
6462;DHT22;3264;42.862;25.098;2023-11-21T04:33:50;3.80;99.90
6462;DHT22;3264;42.862;25.098;2023-11-21T04:36:19;3.80;99.90
6462;DHT22;3264;42.862;25.098;2023-11-21T04:38:48;3.90;99.90
6462;DHT22;3264;42.862;25.098;2023-11-21T04:41:15;3.90;99.90
6462;DHT22;3264;42.862;25.098;2023-11-21T04:43:44;3.90;99.90
6462;DHT22;3264;42.862;25.098;2023-11-21T04:46:12;3.90;99.90
6462;DHT22;3264;42.862;25.098;2023-11-21T04:48:40;3.90;99.90
6462;DHT22;3264;42.862;25.098;2023-11-21T04:51:09;3.90;99.90
6462;DHT22;3264;42.862;25.098;2023-11-21T04:53:40;3.90;99.90
6462;DHT22;3264;42.862;25.098;2023-11-21T04:56:08;4.00;99.90
6462;DHT22;3264;42.862;25.098;2023-11-21T04:58:36;4.10;99.90
6462;DHT22;3264;42.862;25.098;2023-11-21T05:01:07;4.10;99.90
6462;DHT22;3264;42.862;25.098;2023-11-21T05:03:35;4.20;99.90
6462;DHT22;3264;42.862;25.098;2023-11-21T05:06:05;4.00;99.90
6462;DHT22;3264;42.862;25.098;2023-11-21T05:08:34;4.00;99.90
6462;DHT22;3264;42.862;25.098;2023-11-21T05:11:05;4.00;99.90
6462;DHT22;3264;42.862;25.098;2023-11-21T05:13:34;4.00;99.90
6462;DHT22;3264;42.862;25.098;2023-11-21T05:16:02;3.90;99.90
6462;DHT22;3264;42.862;25.098;2023-11-21T05:18:33;3.90;99.90
6462;DHT22;3264;42.862;25.098;2023-11-21T05:21:00;3.90;99.90
6462;DHT22;3264;42.862;25.098;2023-11-21T05:23:29;4.00;99.90
6462;DHT22;3264;42.862;25.098;2023-11-21T05:25:57;4.00;99.90
6462;DHT22;3264;42.862;25.098;2023-11-21T05:28:27;4.00;99.90
6462;DHT22;3264;42.862;25.098;2023-11-21T05:30:55;4.00;99.90
6462;DHT22;3264;42.862;25.098;2023-11-21T05:33:24;4.10;99.90
6462;DHT22;3264;42.862;25.098;2023-11-21T05:35:51;4.10;99.90
6462;DHT22;3264;42.862;25.098;2023-11-21T05:38:19;4.20;99.90
6462;DHT22;3264;42.862;25.098;2023-11-21T05:40:47;4.20;99.90
6462;DHT22;3264;42.862;25.098;2023-11-21T05:43:16;4.20;99.90
6462;DHT22;3264;42.862;25.098;2023-11-21T05:45:46;4.30;99.90
6462;DHT22;3264;42.862;25.098;2023-11-21T05:48:22;4.30;99.90
6462;DHT22;3264;42.862;25.098;2023-11-21T05:50:51;4.40;99.90
6462;DHT22;3264;42.862;25.098;2023-11-21T05:53:20;4.50;99.90
6462;DHT22;3264;42.862;25.098;2023-11-21T05:55:47;4.60;99.90
6462;DHT22;3264;42.862;25.098;2023-11-21T05:58:15;4.60;99.90
6462;DHT22;3264;42.862;25.098;2023-11-21T06:00:45;4.80;99.90
6462;DHT22;3264;42.862;25.098;2023-11-21T06:03:14;4.90;99.90
6462;DHT22;3264;42.862;25.098;2023-11-21T06:05:44;5.00;99.90
6462;DHT22;3264;42.862;25.098;2023-11-21T06:08:12;5.10;99.90
6462;DHT22;3264;42.862;25.098;2023-11-21T06:10:43;5.20;99.90
6462;DHT22;3264;42.862;25.098;2023-11-21T06:13:15;5.30;99.90
6462;DHT22;3264;42.862;25.098;2023-11-21T06:15:49;5.30;99.90
6462;DHT22;3264;42.862;25.098;2023-11-21T06:18:16;5.40;99.90
6462;DHT22;3264;42.862;25.098;2023-11-21T06:20:45;5.50;99.90
6462;DHT22;3264;42.862;25.098;2023-11-21T06:23:14;5.60;99.90
6462;DHT22;3264;42.862;25.098;2023-11-21T06:25:43;5.80;99.90
6462;DHT22;3264;42.862;25.098;2023-11-21T06:28:11;6.00;99.90
6462;DHT22;3264;42.862;25.098;2023-11-21T06:30:38;6.20;99.90
6462;DHT22;3264;42.862;25.098;2023-11-21T06:33:08;6.30;99.90
6462;DHT22;3264;42.862;25.098;2023-11-21T06:35:37;6.50;99.90
6462;DHT22;3264;42.862;25.098;2023-11-21T06:38:06;6.60;99.90
6462;DHT22;3264;42.862;25.098;2023-11-21T06:40:35;6.70;99.90
6462;DHT22;3264;42.862;25.098;2023-11-21T06:43:03;6.90;99.90
6462;DHT22;3264;42.862;25.098;2023-11-21T06:45:33;6.90;99.90
6462;DHT22;3264;42.862;25.098;2023-11-21T06:48:01;6.90;99.90
6462;DHT22;3264;42.862;25.098;2023-11-21T06:50:31;7.10;99.90
6462;DHT22;3264;42.862;25.098;2023-11-21T06:52:59;7.30;99.90
6462;DHT22;3264;42.862;25.098;2023-11-21T06:55:28;7.60;99.90
6462;DHT22;3264;42.862;25.098;2023-11-21T06:57:57;7.80;99.90
6462;DHT22;3264;42.862;25.098;2023-11-21T07:00:27;7.70;99.90
6462;DHT22;3264;42.862;25.098;2023-11-21T07:02:55;7.80;99.90
6462;DHT22;3264;42.862;25.098;2023-11-21T07:05:23;7.80;99.50
6462;DHT22;3264;42.862;25.098;2023-11-21T07:07:53;7.60;99.70
6462;DHT22;3264;42.862;25.098;2023-11-21T07:10:21;7.90;99.90
6462;DHT22;3264;42.862;25.098;2023-11-21T07:12:48;8.10;99.90
6462;DHT22;3264;42.862;25.098;2023-11-21T07:15:17;8.40;99.70
6462;DHT22;3264;42.862;25.098;2023-11-21T07:17:46;8.70;99.80
6462;DHT22;3264;42.862;25.098;2023-11-21T07:20:14;8.90;99.20
6462;DHT22;3264;42.862;25.098;2023-11-21T07:22:43;9.20;98.90
6462;DHT22;3264;42.862;25.098;2023-11-21T07:25:14;9.50;97.60
6462;DHT22;3264;42.862;25.098;2023-11-21T07:27:42;9.70;96.40
6462;DHT22;3264;42.862;25.098;2023-11-21T07:30:11;10.30;95.60
6462;DHT22;3264;42.862;25.098;2023-11-21T07:32:40;11.10;94.30
6462;DHT22;3264;42.862;25.098;2023-11-21T07:35:09;11.70;92.90
6462;DHT22;3264;42.862;25.098;2023-11-21T07:37:37;12.10;91.60
6462;DHT22;3264;42.862;25.098;2023-11-21T07:40:08;12.00;90.80
6462;DHT22;3264;42.862;25.098;2023-11-21T07:42:39;12.50;90.20
6462;DHT22;3264;42.862;25.098;2023-11-21T07:45:09;13.30;89.80
6462;DHT22;3264;42.862;25.098;2023-11-21T07:47:37;14.40;85.80
6462;DHT22;3264;42.862;25.098;2023-11-21T07:50:06;15.40;81.30
6462;DHT22;3264;42.862;25.098;2023-11-21T07:52:34;16.60;78.30
6462;DHT22;3264;42.862;25.098;2023-11-21T07:55:03;17.90;71.20
6462;DHT22;3264;42.862;25.098;2023-11-21T07:57:31;18.70;67.40
6462;DHT22;3264;42.862;25.098;2023-11-21T08:00:01;19.70;60.80
6462;DHT22;3264;42.862;25.098;2023-11-21T08:02:32;19.70;60.70
6462;DHT22;3264;42.862;25.098;2023-11-21T08:05:00;19.90;58.40
6462;DHT22;3264;42.862;25.098;2023-11-21T08:07:28;19.70;58.00
6462;DHT22;3264;42.862;25.098;2023-11-21T08:09:56;20.20;58.00
6462;DHT22;3264;42.862;25.098;2023-11-21T08:12:25;20.30;55.60
6462;DHT22;3264;42.862;25.098;2023-11-21T08:14:53;20.60;55.10
6462;DHT22;3264;42.862;25.098;2023-11-21T08:17:23;20.50;53.70
6462;DHT22;3264;42.862;25.098;2023-11-21T08:19:51;20.50;53.90
6462;DHT22;3264;42.862;25.098;2023-11-21T08:22:19;20.60;55.20
6462;DHT22;3264;42.862;25.098;2023-11-21T08:24:47;21.60;53.90
6462;DHT22;3264;42.862;25.098;2023-11-21T08:27:17;22.40;52.10
6462;DHT22;3264;42.862;25.098;2023-11-21T08:29:46;22.80;51.50
6462;DHT22;3264;42.862;25.098;2023-11-21T08:32:13;23.50;49.40
6462;DHT22;3264;42.862;25.098;2023-11-21T08:34:43;24.20;48.50
6462;DHT22;3264;42.862;25.098;2023-11-21T08:37:15;24.40;46.80
6462;DHT22;3264;42.862;25.098;2023-11-21T08:39:44;25.30;46.30
6462;DHT22;3264;42.862;25.098;2023-11-21T08:42:12;25.20;45.00
6462;DHT22;3264;42.862;25.098;2023-11-21T08:44:40;25.80;44.70
6462;DHT22;3264;42.862;25.098;2023-11-21T08:47:09;26.60;41.60
6462;DHT22;3264;42.862;25.098;2023-11-21T08:49:37;26.90;43.00
6462;DHT22;3264;42.862;25.098;2023-11-21T08:52:07;28.10;40.70
6462;DHT22;3264;42.862;25.098;2023-11-21T08:54:36;28.10;41.00
6462;DHT22;3264;42.862;25.098;2023-11-21T08:57:05;28.20;39.30
6462;DHT22;3264;42.862;25.098;2023-11-21T08:59:32;28.80;37.90
6462;DHT22;3264;42.862;25.098;2023-11-21T09:02:02;29.20;35.90
6462;DHT22;3264;42.862;25.098;2023-11-21T09:04:30;28.80;36.30
6462;DHT22;3264;42.862;25.098;2023-11-21T09:06:58;27.90;36.90
6462;DHT22;3264;42.862;25.098;2023-11-21T09:09:28;27.90;38.40
6462;DHT22;3264;42.862;25.098;2023-11-21T09:11:56;28.60;37.50
6462;DHT22;3264;42.862;25.098;2023-11-21T09:14:28;29.10;35.80
6462;DHT22;3264;42.862;25.098;2023-11-21T09:16:56;28.50;36.20
6462;DHT22;3264;42.862;25.098;2023-11-21T09:19:25;28.40;37.40
6462;DHT22;3264;42.862;25.098;2023-11-21T09:21:53;29.10;35.90
6462;DHT22;3264;42.862;25.098;2023-11-21T09:24:24;29.40;36.10
6462;DHT22;3264;42.862;25.098;2023-11-21T09:26:53;29.90;35.20
6462;DHT22;3264;42.862;25.098;2023-11-21T09:29:21;30.30;34.70
6462;DHT22;3264;42.862;25.098;2023-11-21T09:31:48;30.30;33.70
6462;DHT22;3264;42.862;25.098;2023-11-21T09:34:17;29.90;33.80
6462;DHT22;3264;42.862;25.098;2023-11-21T09:36:45;29.00;34.90
6462;DHT22;3264;42.862;25.098;2023-11-21T09:39:13;29.40;35.10
6462;DHT22;3264;42.862;25.098;2023-11-21T09:41:49;29.50;34.00
6462;DHT22;3264;42.862;25.098;2023-11-21T09:44:25;29.60;33.40
6462;DHT22;3264;42.862;25.098;2023-11-21T09:46:59;29.10;32.80
6462;DHT22;3264;42.862;25.098;2023-11-21T09:49:28;27.90;33.90
6462;DHT22;3264;42.862;25.098;2023-11-21T09:52:01;26.50;36.20
6462;DHT22;3264;42.862;25.098;2023-11-21T09:54:32;25.80;38.00
6462;DHT22;3264;42.862;25.098;2023-11-21T09:57:00;25.50;37.80
6462;DHT22;3264;42.862;25.098;2023-11-21T09:59:32;25.50;38.30
6462;DHT22;3264;42.862;25.098;2023-11-21T10:02:00;24.90;39.40
6462;DHT22;3264;42.862;25.098;2023-11-21T10:04:29;25.00;39.50
6462;DHT22;3264;42.862;25.098;2023-11-21T10:06:58;25.20;39.10
6462;DHT22;3264;42.862;25.098;2023-11-21T10:09:28;25.70;38.00
6462;DHT22;3264;42.862;25.098;2023-11-21T10:11:59;25.70;37.40
6462;DHT22;3264;42.862;25.098;2023-11-21T10:14:32;25.50;38.00
6462;DHT22;3264;42.862;25.098;2023-11-21T10:17:06;25.30;37.70
6462;DHT22;3264;42.862;25.098;2023-11-21T10:19:36;24.90;38.50
6462;DHT22;3264;42.862;25.098;2023-11-21T10:22:05;24.60;38.90
6462;DHT22;3264;42.862;25.098;2023-11-21T10:24:35;24.30;40.00
6462;DHT22;3264;42.862;25.098;2023-11-21T10:27:04;24.40;39.50
6462;DHT22;3264;42.862;25.098;2023-11-21T10:29:35;23.70;39.50
6462;DHT22;3264;42.862;25.098;2023-11-21T10:32:03;23.00;40.30
6462;DHT22;3264;42.862;25.098;2023-11-21T10:34:32;22.50;41.20
6462;DHT22;3264;42.862;25.098;2023-11-21T10:37:12;22.00;42.20
6462;DHT22;3264;42.862;25.098;2023-11-21T10:39:41;21.40;42.90
6462;DHT22;3264;42.862;25.098;2023-11-21T10:42:10;20.70;43.40
6462;DHT22;3264;42.862;25.098;2023-11-21T10:44:42;20.40;44.60
6462;DHT22;3264;42.862;25.098;2023-11-21T10:47:11;20.40;44.80
6462;DHT22;3264;42.862;25.098;2023-11-21T10:49:40;20.40;44.70
6462;DHT22;3264;42.862;25.098;2023-11-21T10:52:09;20.00;44.70
6462;DHT22;3264;42.862;25.098;2023-11-21T10:54:44;19.80;45.50
6462;DHT22;3264;42.862;25.098;2023-11-21T10:57:15;19.70;45.20
6462;DHT22;3264;42.862;25.098;2023-11-21T10:59:46;19.60;44.90
6462;DHT22;3264;42.862;25.098;2023-11-21T11:02:22;19.60;46.30
6462;DHT22;3264;42.862;25.098;2023-11-21T11:04:57;19.90;46.20
6462;DHT22;3264;42.862;25.098;2023-11-21T11:07:28;20.30;45.30
6462;DHT22;3264;42.862;25.098;2023-11-21T11:10:00;20.60;44.60
6462;DHT22;3264;42.862;25.098;2023-11-21T11:12:30;20.80;44.50
6462;DHT22;3264;42.862;25.098;2023-11-21T11:14:59;20.80;44.60
6462;DHT22;3264;42.862;25.098;2023-11-21T11:17:29;21.30;44.30
6462;DHT22;3264;42.862;25.098;2023-11-21T11:19:58;21.40;44.00
6462;DHT22;3264;42.862;25.098;2023-11-21T11:22:35;21.80;43.30
6462;DHT22;3264;42.862;25.098;2023-11-21T11:25:27;21.90;42.30
6462;DHT22;3264;42.862;25.098;2023-11-21T11:28:03;21.80;42.70
6462;DHT22;3264;42.862;25.098;2023-11-21T11:30:45;21.80;44.00
6462;DHT22;3264;42.862;25.098;2023-11-21T11:33:24;21.60;42.10
6462;DHT22;3264;42.862;25.098;2023-11-21T11:36:00;21.20;42.60
6462;DHT22;3264;42.862;25.098;2023-11-21T11:38:32;20.90;43.50
6462;DHT22;3264;42.862;25.098;2023-11-21T11:41:02;20.70;44.80
6462;DHT22;3264;42.862;25.098;2023-11-21T11:43:32;20.50;43.90
6462;DHT22;3264;42.862;25.098;2023-11-21T11:46:11;20.40;44.00
6462;DHT22;3264;42.862;25.098;2023-11-21T11:48:41;20.50;43.50
6462;DHT22;3264;42.862;25.098;2023-11-21T11:51:12;20.50;44.30
6462;DHT22;3264;42.862;25.098;2023-11-21T11:53:45;20.40;44.10
6462;DHT22;3264;42.862;25.098;2023-11-21T11:56:26;20.60;44.70
6462;DHT22;3264;42.862;25.098;2023-11-21T11:58:57;20.70;44.20
6462;DHT22;3264;42.862;25.098;2023-11-21T12:01:27;20.90;44.00
6462;DHT22;3264;42.862;25.098;2023-11-21T12:04:25;20.90;43.50
6462;DHT22;3264;42.862;25.098;2023-11-21T12:07:01;20.80;43.70
6462;DHT22;3264;42.862;25.098;2023-11-21T12:09:32;20.60;43.10
6462;DHT22;3264;42.862;25.098;2023-11-21T12:12:01;20.40;43.90
6462;DHT22;3264;42.862;25.098;2023-11-21T12:14:31;20.20;44.30
6462;DHT22;3264;42.862;25.098;2023-11-21T12:17:00;20.20;44.80
6462;DHT22;3264;42.862;25.098;2023-11-21T12:19:29;20.10;44.40
6462;DHT22;3264;42.862;25.098;2023-11-21T12:21:57;19.80;44.40
6462;DHT22;3264;42.862;25.098;2023-11-21T12:24:26;19.60;46.60
6462;DHT22;3264;42.862;25.098;2023-11-21T12:26:55;19.30;46.70
6462;DHT22;3264;42.862;25.098;2023-11-21T12:29:22;19.10;48.20
6462;DHT22;3264;42.862;25.098;2023-11-21T12:31:50;18.90;50.10
6462;DHT22;3264;42.862;25.098;2023-11-21T12:34:19;18.80;47.80
6462;DHT22;3264;42.862;25.098;2023-11-21T12:36:47;18.80;49.20
6462;DHT22;3264;42.862;25.098;2023-11-21T12:39:16;18.80;49.90
6462;DHT22;3264;42.862;25.098;2023-11-21T12:41:44;18.80;49.30
6462;DHT22;3264;42.862;25.098;2023-11-21T12:44:13;18.80;49.20
6462;DHT22;3264;42.862;25.098;2023-11-21T12:46:42;18.80;49.00
6462;DHT22;3264;42.862;25.098;2023-11-21T12:49:21;18.70;49.10
6462;DHT22;3264;42.862;25.098;2023-11-21T12:51:49;18.70;49.20
6462;DHT22;3264;42.862;25.098;2023-11-21T12:54:18;18.60;49.20
6462;DHT22;3264;42.862;25.098;2023-11-21T12:56:46;18.50;48.40
6462;DHT22;3264;42.862;25.098;2023-11-21T12:59:15;18.40;48.70
6462;DHT22;3264;42.862;25.098;2023-11-21T13:01:44;18.40;48.60
6462;DHT22;3264;42.862;25.098;2023-11-21T13:04:14;18.30;49.80
6462;DHT22;3264;42.862;25.098;2023-11-21T13:06:43;18.30;50.40
6462;DHT22;3264;42.862;25.098;2023-11-21T13:09:12;18.20;49.90
6462;DHT22;3264;42.862;25.098;2023-11-21T13:11:48;18.20;50.00
6462;DHT22;3264;42.862;25.098;2023-11-21T13:14:16;18.10;49.50
6462;DHT22;3264;42.862;25.098;2023-11-21T13:16:45;18.10;49.60
6462;DHT22;3264;42.862;25.098;2023-11-21T13:19:13;18.00;49.80
6462;DHT22;3264;42.862;25.098;2023-11-21T13:21:43;17.90;51.10
6462;DHT22;3264;42.862;25.098;2023-11-21T13:24:11;17.80;51.10
6462;DHT22;3264;42.862;25.098;2023-11-21T13:26:41;17.90;50.60
6462;DHT22;3264;42.862;25.098;2023-11-21T13:29:10;17.70;51.30
6462;DHT22;3264;42.862;25.098;2023-11-21T13:31:39;17.70;50.30
6462;DHT22;3264;42.862;25.098;2023-11-21T13:34:07;17.70;50.80
6462;DHT22;3264;42.862;25.098;2023-11-21T13:36:34;17.50;50.80
6462;DHT22;3264;42.862;25.098;2023-11-21T13:39:04;17.40;50.80
6462;DHT22;3264;42.862;25.098;2023-11-21T13:41:36;17.30;50.80
6462;DHT22;3264;42.862;25.098;2023-11-21T13:44:04;17.30;51.20
6462;DHT22;3264;42.862;25.098;2023-11-21T13:46:41;17.20;51.60
6462;DHT22;3264;42.862;25.098;2023-11-21T13:49:11;17.20;52.30
6462;DHT22;3264;42.862;25.098;2023-11-21T13:51:40;17.10;52.60
6462;DHT22;3264;42.862;25.098;2023-11-21T13:54:12;17.10;52.60
6462;DHT22;3264;42.862;25.098;2023-11-21T13:56:41;17.00;53.00
6462;DHT22;3264;42.862;25.098;2023-11-21T13:59:10;16.90;53.50
6462;DHT22;3264;42.862;25.098;2023-11-21T14:01:45;16.90;53.10
6462;DHT22;3264;42.862;25.098;2023-11-21T14:04:22;16.80;53.70
6462;DHT22;3264;42.862;25.098;2023-11-21T14:07:04;16.70;53.50
6462;DHT22;3264;42.862;25.098;2023-11-21T14:09:50;16.70;53.50
6462;DHT22;3264;42.862;25.098;2023-11-21T14:12:18;16.60;53.70
6462;DHT22;3264;42.862;25.098;2023-11-21T14:14:46;16.50;54.20
6462;DHT22;3264;42.862;25.098;2023-11-21T14:17:15;16.40;54.70
6462;DHT22;3264;42.862;25.098;2023-11-21T14:19:43;16.30;54.90
6462;DHT22;3264;42.862;25.098;2023-11-21T14:22:12;16.30;55.50
6462;DHT22;3264;42.862;25.098;2023-11-21T14:24:39;16.20;54.90
6462;DHT22;3264;42.862;25.098;2023-11-21T14:27:15;16.10;55.10
6462;DHT22;3264;42.862;25.098;2023-11-21T14:29:43;16.00;55.00
6462;DHT22;3264;42.862;25.098;2023-11-21T14:32:12;16.00;55.40
6462;DHT22;3264;42.862;25.098;2023-11-21T14:34:41;15.90;55.80
6462;DHT22;3264;42.862;25.098;2023-11-21T14:37:11;15.80;56.30
6462;DHT22;3264;42.862;25.098;2023-11-21T14:39:41;15.80;56.50
6462;DHT22;3264;42.862;25.098;2023-11-21T14:42:11;15.70;56.70
6462;DHT22;3264;42.862;25.098;2023-11-21T14:44:42;15.60;57.60
6462;DHT22;3264;42.862;25.098;2023-11-21T14:47:11;15.50;58.10
6462;DHT22;3264;42.862;25.098;2023-11-21T14:49:43;15.40;59.70
6462;DHT22;3264;42.862;25.098;2023-11-21T14:52:20;15.30;60.40
6462;DHT22;3264;42.862;25.098;2023-11-21T14:55:00;15.10;60.10
6462;DHT22;3264;42.862;25.098;2023-11-21T14:57:49;15.00;60.30
6462;DHT22;3264;42.862;25.098;2023-11-21T15:00:19;14.90;60.50
6462;DHT22;3264;42.862;25.098;2023-11-21T15:03:11;14.80;59.90
6462;DHT22;3264;42.862;25.098;2023-11-21T15:05:49;14.70;59.30
6462;DHT22;3264;42.862;25.098;2023-11-21T15:08:19;14.60;59.10
6462;DHT22;3264;42.862;25.098;2023-11-21T15:10:52;14.50;58.90
6462;DHT22;3264;42.862;25.098;2023-11-21T15:13:22;14.50;59.10
6462;DHT22;3264;42.862;25.098;2023-11-21T15:15:53;14.40;59.60
6462;DHT22;3264;42.862;25.098;2023-11-21T15:18:21;14.20;60.40
6462;DHT22;3264;42.862;25.098;2023-11-21T15:20:51;13.90;62.20
6462;DHT22;3264;42.862;25.098;2023-11-21T15:23:20;13.90;62.50
6462;DHT22;3264;42.862;25.098;2023-11-21T15:25:48;13.90;62.80
6462;DHT22;3264;42.862;25.098;2023-11-21T15:28:17;13.80;62.70
6462;DHT22;3264;42.862;25.098;2023-11-21T15:30:45;13.80;62.50
6462;DHT22;3264;42.862;25.098;2023-11-21T15:33:18;13.70;62.30
6462;DHT22;3264;42.862;25.098;2023-11-21T15:35:46;13.70;62.40
6462;DHT22;3264;42.862;25.098;2023-11-21T15:38:14;13.70;62.30
6462;DHT22;3264;42.862;25.098;2023-11-21T15:40:42;13.60;62.50
6462;DHT22;3264;42.862;25.098;2023-11-21T15:43:12;13.50;62.90
6462;DHT22;3264;42.862;25.098;2023-11-21T15:45:41;13.40;62.90
6462;DHT22;3264;42.862;25.098;2023-11-21T15:48:09;13.40;63.30
6462;DHT22;3264;42.862;25.098;2023-11-21T15:50:39;13.40;63.30
6462;DHT22;3264;42.862;25.098;2023-11-21T15:53:08;13.30;63.50
6462;DHT22;3264;42.862;25.098;2023-11-21T15:55:36;13.30;63.60
6462;DHT22;3264;42.862;25.098;2023-11-21T15:58:15;13.20;64.00
6462;DHT22;3264;42.862;25.098;2023-11-21T16:00:42;13.10;64.30
6462;DHT22;3264;42.862;25.098;2023-11-21T16:03:11;13.10;64.30
6462;DHT22;3264;42.862;25.098;2023-11-21T16:05:42;13.00;65.00
6462;DHT22;3264;42.862;25.098;2023-11-21T16:08:10;12.90;65.80
6462;DHT22;3264;42.862;25.098;2023-11-21T16:10:39;12.90;66.30